Jamaica — CUGW5 — position and weather

sailwx.info

Track history (hours):
 
Tides and Currents Weather Stations Pressure Air Temp Water Temp Dewpoint Dewpoint Depression Visibility Wind Speed Wind Dir Waves Ship Positions

Jamaica

Last reported at 2018-Jan-20 08:52 UTC. Time now 2018-Jan-22 00:29 UTC.
Position N 39°19' W 009°31'.

Type: Fishing. MMSI: 263405550.

Date/timePositionNaut miles runAvg speedWind from/ knotsBaromVisibWave heightAir tempDewpointWater temp
2018-Jan-20 08:52N 39°19' W 009°31'3 8.6
2018-Jan-20 08:30N 39°19' W 009°35'5 8.6
2018-Jan-20 07:59N 39°18' W 009°40'19 8.4
2018-Jan-20 05:43N 39°13' W 010°04'3 8.5
2018-Jan-20 05:21N 39°13' W 010°08'13 8.5
2018-Jan-20 03:46N 39°09' W 010°25'3 8.4
2018-Jan-20 03:26N 39°09' W 010°29'4 8.3
2018-Jan-20 03:00N 39°08' W 010°33'5 8.3
2018-Jan-20 02:25N 39°07' W 010°39'4 8.3
2018-Jan-20 01:59N 39°06' W 010°44'4 8.1
2018-Jan-20 01:29N 39°06' W 010°49'  
Track history (hours):
 
Tides and Currents Weather Stations Pressure Air Temp Water Temp Dewpoint Dewpoint Depression Visibility Wind Speed Wind Dir Waves Ship Positions

Jamaica

Last reported at 2018-Jan-20 08:52 UTC. Time now 2018-Jan-22 00:29 UTC.
Position N 39°19' W 009°31'.

Type: Fishing. MMSI: 263405550.

Date/timePositionNaut miles runAvg speedWind from/ knotsBaromVisibWave heightAir tempDewpointWater temp
2018-Jan-20 08:52N 39°19' W 009°31'3 8.6
2018-Jan-20 08:30N 39°19' W 009°35'5 8.6
2018-Jan-20 07:59N 39°18' W 009°40'19 8.4
2018-Jan-20 05:43N 39°13' W 010°04'3 8.5
2018-Jan-20 05:21N 39°13' W 010°08'13 8.5
2018-Jan-20 03:46N 39°09' W 010°25'3 8.4
2018-Jan-20 03:26N 39°09' W 010°29'4 8.3
2018-Jan-20 03:00N 39°08' W 010°33'5 8.3
2018-Jan-20 02:25N 39°07' W 010°39'4 8.3
2018-Jan-20 01:59N 39°06' W 010°44'4 8.1
2018-Jan-20 01:29N 39°06' W 010°49'  

Dump ship's entire track history